Kindersley Airport
CYKY : rendu visible

Aérodrome :











RETROUVEZ-NOUS SUR...

 
LOGIN :

S'inscrire | Disclaimer

   EN    FR    IT 

 









Légende :    VFR   VFR Marginal   IFR   IFR Intensif   IFR Très Intensif
Visi : 
Plafond : 
>= 8 km
>= 3000ft
5 à 8 km
1000 à 3000 ft
1500m à 5 km
500 à 1000 ft
800 à 1500m
200 à 500 ft
< 800m
< 200 ft
Symboles :   Orages  Brouillard  Fortes neiges  Fortes précipitations  Vent > 20 kt






- Altitude de l'aérodrome : 2277 ft
- Code IATA : YKY


CYKY - Kindersley

DERNIER METAR :
  • 061500Z 30007KT 0SM FZFG VV001 M10/M12 A3000 RMK FG8 FROIN SLP209

METARs EXPIRÉS :
  • 061400Z 00000KT 0SM FZFG VV001 M11/M13 A3000 RMK FG8 FROIN SLP210
  • 061300Z 27005KT 100V270 0SM FZFG VV001 M11/M13 A2998 RMK FG8 FROIN SLP205
  • 061219Z 25006KT 0SM FZFG OVC002 M11/M13 A2998 RMK FG6ST2 SLP205

TAF N/A



MET'MAP, la Météo Aéronautique d'un coup d'oeil ! - Copyright ORBIFLY Décembre 2007 - Disclaimer

ORBIFLY MET'MAP TEAM :

Programmation & Développement : Alexandra Zaïnal
Sur une idée originale de : Baudouin d'Aumeries
Assistance à la programmation : Marc-Olivier Méhu
Soutien technique & logistique : Manuel Goepfert

Contact : metmap@orbifly.com




SOURCES & CREDITS :

   NOAA       Earth
Advisory